sensor_id;sensor_type;location;lat;lon;timestamp;P1;durP1;ratioP1;P2;durP2;ratioP2
9240;SDS011;53485;49.326;9.738;2022-10-30T00:00:32;8.27;;;4.37;;
9240;SDS011;53485;49.326;9.738;2022-10-30T00:03:00;6.97;;;4.60;;
9240;SDS011;53485;49.326;9.738;2022-10-30T00:05:27;7.43;;;4.03;;
9240;SDS011;53485;49.326;9.738;2022-10-30T00:07:55;10.23;;;4.97;;
9240;SDS011;53485;49.326;9.738;2022-10-30T00:10:22;9.37;;;5.07;;
9240;SDS011;53485;49.326;9.738;2022-10-30T00:12:49;10.40;;;5.37;;
9240;SDS011;53485;49.326;9.738;2022-10-30T00:15:16;12.53;;;4.27;;
9240;SDS011;53485;49.326;9.738;2022-10-30T00:17:44;8.50;;;4.77;;
9240;SDS011;53485;49.326;9.738;2022-10-30T00:20:11;8.00;;;4.40;;
9240;SDS011;53485;49.326;9.738;2022-10-30T00:22:39;5.67;;;4.30;;
9240;SDS011;53485;49.326;9.738;2022-10-30T00:25:06;5.33;;;4.13;;
9240;SDS011;53485;49.326;9.738;2022-10-30T00:27:34;9.83;;;5.00;;
9240;SDS011;53485;49.326;9.738;2022-10-30T00:30:01;7.60;;;4.27;;
9240;SDS011;53485;49.326;9.738;2022-10-30T00:32:28;8.60;;;4.23;;
9240;SDS011;53485;49.326;9.738;2022-10-30T00:34:56;11.17;;;4.80;;
9240;SDS011;53485;49.326;9.738;2022-10-30T00:37:23;7.40;;;4.10;;
9240;SDS011;53485;49.326;9.738;2022-10-30T00:39:51;8.80;;;4.57;;
9240;SDS011;53485;49.326;9.738;2022-10-30T00:42:18;7.70;;;4.30;;
9240;SDS011;53485;49.326;9.738;2022-10-30T00:44:47;12.50;;;4.50;;
9240;SDS011;53485;49.326;9.738;2022-10-30T00:47:18;8.63;;;3.90;;
9240;SDS011;53485;49.326;9.738;2022-10-30T00:49:53;10.57;;;4.00;;
9240;SDS011;53485;49.326;9.738;2022-10-30T00:52:19;9.53;;;3.60;;
9240;SDS011;53485;49.326;9.738;2022-10-30T00:54:45;9.03;;;3.97;;
9240;SDS011;53485;49.326;9.738;2022-10-30T00:57:13;10.93;;;4.23;;
9240;SDS011;53485;49.326;9.738;2022-10-30T00:59:40;9.97;;;4.03;;
9240;SDS011;53485;49.326;9.738;2022-10-30T01:02:07;7.73;;;3.70;;
9240;SDS011;53485;49.326;9.738;2022-10-30T01:04:35;7.23;;;3.67;;
9240;SDS011;53485;49.326;9.738;2022-10-30T01:07:04;12.97;;;4.10;;
9240;SDS011;53485;49.326;9.738;2022-10-30T01:09:28;11.97;;;4.70;;
9240;SDS011;53485;49.326;9.738;2022-10-30T01:11:55;6.40;;;4.33;;
9240;SDS011;53485;49.326;9.738;2022-10-30T01:14:22;6.70;;;4.43;;
9240;SDS011;53485;49.326;9.738;2022-10-30T01:19:47;9.53;;;4.37;;
9240;SDS011;53485;49.326;9.738;2022-10-30T01:22:25;6.53;;;4.00;;
9240;SDS011;53485;49.326;9.738;2022-10-30T01:27:57;11.70;;;4.70;;
9240;SDS011;53485;49.326;9.738;2022-10-30T01:33:05;9.87;;;4.40;;
9240;SDS011;53485;49.326;9.738;2022-10-30T01:35:36;11.50;;;4.37;;
9240;SDS011;53485;49.326;9.738;2022-10-30T01:38:09;12.17;;;4.70;;
9240;SDS011;53485;49.326;9.738;2022-10-30T01:40:33;9.73;;;4.40;;
9240;SDS011;53485;49.326;9.738;2022-10-30T01:43:00;9.47;;;3.60;;
9240;SDS011;53485;49.326;9.738;2022-10-30T01:48:14;8.27;;;3.30;;
9240;SDS011;53485;49.326;9.738;2022-10-30T01:50:46;13.07;;;3.67;;
9240;SDS011;53485;49.326;9.738;2022-10-30T01:53:19;11.70;;;3.47;;
9240;SDS011;53485;49.326;9.738;2022-10-30T01:58:45;7.43;;;3.73;;
9240;SDS011;53485;49.326;9.738;2022-10-30T02:01:10;10.07;;;3.77;;
9240;SDS011;53485;49.326;9.738;2022-10-30T02:03:37;5.20;;;2.67;;
9240;SDS011;53485;49.326;9.738;2022-10-30T02:06:04;5.83;;;3.00;;
9240;SDS011;53485;49.326;9.738;2022-10-30T02:08:31;7.20;;;2.83;;
9240;SDS011;53485;49.326;9.738;2022-10-30T02:10:59;6.43;;;3.17;;
9240;SDS011;53485;49.326;9.738;2022-10-30T02:13:26;10.27;;;4.20;;
9240;SDS011;53485;49.326;9.738;2022-10-30T02:15:53;12.80;;;4.43;;
9240;SDS011;53485;49.326;9.738;2022-10-30T02:18:20;18.40;;;5.10;;
9240;SDS011;53485;49.326;9.738;2022-10-30T02:20:47;5.53;;;3.53;;
9240;SDS011;53485;49.326;9.738;2022-10-30T02:23:15;6.33;;;3.67;;
9240;SDS011;53485;49.326;9.738;2022-10-30T02:25:42;5.37;;;3.70;;
9240;SDS011;53485;49.326;9.738;2022-10-30T02:28:09;6.50;;;3.50;;
9240;SDS011;53485;49.326;9.738;2022-10-30T02:30:36;6.10;;;2.90;;
9240;SDS011;53485;49.326;9.738;2022-10-30T02:33:03;8.90;;;4.00;;
9240;SDS011;53485;49.326;9.738;2022-10-30T02:35:30;9.23;;;3.83;;
9240;SDS011;53485;49.326;9.738;2022-10-30T02:37:58;6.30;;;2.90;;
9240;SDS011;53485;49.326;9.738;2022-10-30T02:40:25;6.77;;;3.33;;
9240;SDS011;53485;49.326;9.738;2022-10-30T02:42:53;6.20;;;3.53;;
9240;SDS011;53485;49.326;9.738;2022-10-30T02:45:19;5.80;;;3.83;;
9240;SDS011;53485;49.326;9.738;2022-10-30T02:47:46;9.07;;;4.40;;
9240;SDS011;53485;49.326;9.738;2022-10-30T02:50:13;9.90;;;4.53;;
9240;SDS011;53485;49.326;9.738;2022-10-30T02:52:40;7.10;;;3.97;;
9240;SDS011;53485;49.326;9.738;2022-10-30T02:55:08;9.90;;;3.80;;
9240;SDS011;53485;49.326;9.738;2022-10-30T02:57:35;7.97;;;4.50;;
9240;SDS011;53485;49.326;9.738;2022-10-30T03:00:03;7.93;;;4.43;;
9240;SDS011;53485;49.326;9.738;2022-10-30T03:02:31;10.63;;;3.77;;
9240;SDS011;53485;49.326;9.738;2022-10-30T03:04:58;7.93;;;4.03;;
9240;SDS011;53485;49.326;9.738;2022-10-30T03:07:26;9.13;;;4.70;;
9240;SDS011;53485;49.326;9.738;2022-10-30T03:09:53;11.20;;;4.37;;
9240;SDS011;53485;49.326;9.738;2022-10-30T03:12:20;9.97;;;4.30;;
9240;SDS011;53485;49.326;9.738;2022-10-30T03:14:47;12.83;;;4.83;;
9240;SDS011;53485;49.326;9.738;2022-10-30T03:17:14;13.37;;;4.63;;
9240;SDS011;53485;49.326;9.738;2022-10-30T03:19:41;9.83;;;4.77;;
9240;SDS011;53485;49.326;9.738;2022-10-30T03:22:08;10.23;;;4.23;;
9240;SDS011;53485;49.326;9.738;2022-10-30T03:24:36;15.53;;;6.10;;
9240;SDS011;53485;49.326;9.738;2022-10-30T03:27:03;12.87;;;5.53;;
9240;SDS011;53485;49.326;9.738;2022-10-30T03:29:31;13.63;;;4.80;;
9240;SDS011;53485;49.326;9.738;2022-10-30T03:31:58;12.57;;;4.83;;
9240;SDS011;53485;49.326;9.738;2022-10-30T03:34:26;8.33;;;4.37;;
9240;SDS011;53485;49.326;9.738;2022-10-30T03:36:52;7.33;;;4.50;;
9240;SDS011;53485;49.326;9.738;2022-10-30T03:39:20;10.50;;;5.17;;
9240;SDS011;53485;49.326;9.738;2022-10-30T03:41:47;8.93;;;4.27;;
9240;SDS011;53485;49.326;9.738;2022-10-30T03:44:15;9.37;;;4.27;;
9240;SDS011;53485;49.326;9.738;2022-10-30T03:46:42;12.03;;;4.33;;
9240;SDS011;53485;49.326;9.738;2022-10-30T03:49:09;6.00;;;3.40;;
9240;SDS011;53485;49.326;9.738;2022-10-30T03:51:37;6.57;;;3.40;;
9240;SDS011;53485;49.326;9.738;2022-10-30T03:54:04;13.47;;;4.30;;
9240;SDS011;53485;49.326;9.738;2022-10-30T03:56:32;8.57;;;4.30;;
9240;SDS011;53485;49.326;9.738;2022-10-30T03:58:59;9.27;;;3.73;;
9240;SDS011;53485;49.326;9.738;2022-10-30T04:01:27;7.90;;;3.33;;
9240;SDS011;53485;49.326;9.738;2022-10-30T04:03:54;8.80;;;3.50;;
9240;SDS011;53485;49.326;9.738;2022-10-30T04:06:21;6.57;;;3.50;;
9240;SDS011;53485;49.326;9.738;2022-10-30T04:08:49;9.03;;;3.63;;
9240;SDS011;53485;49.326;9.738;2022-10-30T04:11:16;4.57;;;2.47;;
9240;SDS011;53485;49.326;9.738;2022-10-30T04:13:44;9.87;;;4.10;;
9240;SDS011;53485;49.326;9.738;2022-10-30T04:16:11;8.70;;;4.30;;
9240;SDS011;53485;49.326;9.738;2022-10-30T04:18:38;9.37;;;4.57;;
9240;SDS011;53485;49.326;9.738;2022-10-30T04:21:06;5.67;;;3.83;;
9240;SDS011;53485;49.326;9.738;2022-10-30T04:23:33;6.77;;;3.93;;
9240;SDS011;53485;49.326;9.738;2022-10-30T04:26:01;5.13;;;3.83;;
9240;SDS011;53485;49.326;9.738;2022-10-30T04:28:28;7.23;;;3.93;;
9240;SDS011;53485;49.326;9.738;2022-10-30T04:30:55;8.63;;;3.57;;
9240;SDS011;53485;49.326;9.738;2022-10-30T04:33:23;5.70;;;2.73;;
9240;SDS011;53485;49.326;9.738;2022-10-30T04:35:50;10.33;;;3.23;;
9240;SDS011;53485;49.326;9.738;2022-10-30T04:38:17;9.50;;;3.47;;
9240;SDS011;53485;49.326;9.738;2022-10-30T04:40:45;8.27;;;2.63;;
9240;SDS011;53485;49.326;9.738;2022-10-30T04:43:12;10.17;;;3.23;;
9240;SDS011;53485;49.326;9.738;2022-10-30T04:45:40;9.93;;;2.80;;
9240;SDS011;53485;49.326;9.738;2022-10-30T04:48:09;7.70;;;3.30;;
9240;SDS011;53485;49.326;9.738;2022-10-30T04:50:35;10.40;;;3.53;;
9240;SDS011;53485;49.326;9.738;2022-10-30T04:53:05;9.70;;;3.97;;
9240;SDS011;53485;49.326;9.738;2022-10-30T04:55:30;9.07;;;4.13;;
9240;SDS011;53485;49.326;9.738;2022-10-30T04:57:57;6.60;;;4.03;;
9240;SDS011;53485;49.326;9.738;2022-10-30T05:00:24;10.27;;;3.83;;
9240;SDS011;53485;49.326;9.738;2022-10-30T05:02:50;7.43;;;3.43;;
9240;SDS011;53485;49.326;9.738;2022-10-30T05:05:18;9.33;;;3.23;;
9240;SDS011;53485;49.326;9.738;2022-10-30T05:07:45;5.93;;;3.00;;
9240;SDS011;53485;49.326;9.738;2022-10-30T05:10:12;4.60;;;2.60;;
9240;SDS011;53485;49.326;9.738;2022-10-30T05:12:41;7.43;;;3.80;;
9240;SDS011;53485;49.326;9.738;2022-10-30T05:15:07;15.53;;;3.93;;
9240;SDS011;53485;49.326;9.738;2022-10-30T05:17:34;5.53;;;2.80;;
9240;SDS011;53485;49.326;9.738;2022-10-30T05:20:02;9.07;;;3.40;;
9240;SDS011;53485;49.326;9.738;2022-10-30T05:22:29;5.17;;;3.30;;
9240;SDS011;53485;49.326;9.738;2022-10-30T05:24:56;6.37;;;3.00;;
9240;SDS011;53485;49.326;9.738;2022-10-30T05:27:24;9.90;;;3.50;;
9240;SDS011;53485;49.326;9.738;2022-10-30T05:29:51;11.10;;;3.27;;
9240;SDS011;53485;49.326;9.738;2022-10-30T05:32:19;5.10;;;2.90;;
9240;SDS011;53485;49.326;9.738;2022-10-30T05:34:46;7.53;;;2.63;;
9240;SDS011;53485;49.326;9.738;2022-10-30T05:37:13;7.93;;;3.60;;
9240;SDS011;53485;49.326;9.738;2022-10-30T05:39:41;8.03;;;3.13;;
9240;SDS011;53485;49.326;9.738;2022-10-30T05:42:08;5.30;;;2.43;;
9240;SDS011;53485;49.326;9.738;2022-10-30T05:44:35;8.40;;;3.00;;
9240;SDS011;53485;49.326;9.738;2022-10-30T05:47:03;10.17;;;2.60;;
9240;SDS011;53485;49.326;9.738;2022-10-30T05:49:30;5.03;;;2.73;;
9240;SDS011;53485;49.326;9.738;2022-10-30T05:51:58;12.57;;;3.07;;
9240;SDS011;53485;49.326;9.738;2022-10-30T05:54:25;13.13;;;3.03;;
9240;SDS011;53485;49.326;9.738;2022-10-30T05:56:52;7.57;;;3.13;;
9240;SDS011;53485;49.326;9.738;2022-10-30T05:59:20;8.10;;;2.80;;
9240;SDS011;53485;49.326;9.738;2022-10-30T06:01:47;4.07;;;2.10;;
9240;SDS011;53485;49.326;9.738;2022-10-30T06:04:14;9.63;;;2.10;;
9240;SDS011;53485;49.326;9.738;2022-10-30T06:06:42;6.93;;;2.63;;
9240;SDS011;53485;49.326;9.738;2022-10-30T06:09:09;9.57;;;2.57;;
9240;SDS011;53485;49.326;9.738;2022-10-30T06:11:36;8.97;;;2.93;;
9240;SDS011;53485;49.326;9.738;2022-10-30T06:14:04;7.90;;;2.30;;
9240;SDS011;53485;49.326;9.738;2022-10-30T06:16:31;9.13;;;2.63;;
9240;SDS011;53485;49.326;9.738;2022-10-30T06:18:59;10.13;;;2.87;;
9240;SDS011;53485;49.326;9.738;2022-10-30T06:21:26;6.63;;;2.87;;
9240;SDS011;53485;49.326;9.738;2022-10-30T06:23:54;12.27;;;3.47;;
9240;SDS011;53485;49.326;9.738;2022-10-30T06:26:21;8.50;;;2.93;;
9240;SDS011;53485;49.326;9.738;2022-10-30T06:28:48;11.50;;;2.73;;
9240;SDS011;53485;49.326;9.738;2022-10-30T06:31:16;5.77;;;2.70;;
9240;SDS011;53485;49.326;9.738;2022-10-30T06:33:43;5.73;;;2.23;;
9240;SDS011;53485;49.326;9.738;2022-10-30T06:36:11;5.07;;;2.13;;
9240;SDS011;53485;49.326;9.738;2022-10-30T06:38:38;5.57;;;2.40;;
9240;SDS011;53485;49.326;9.738;2022-10-30T06:41:05;9.67;;;2.07;;
9240;SDS011;53485;49.326;9.738;2022-10-30T06:43:33;12.23;;;2.80;;
9240;SDS011;53485;49.326;9.738;2022-10-30T06:46:00;7.70;;;3.30;;
9240;SDS011;53485;49.326;9.738;2022-10-30T06:48:28;8.40;;;2.57;;
9240;SDS011;53485;49.326;9.738;2022-10-30T06:50:55;7.60;;;2.17;;
9240;SDS011;53485;49.326;9.738;2022-10-30T06:53:22;7.97;;;2.87;;
9240;SDS011;53485;49.326;9.738;2022-10-30T06:55:54;10.87;;;2.43;;
9240;SDS011;53485;49.326;9.738;2022-10-30T06:58:20;7.10;;;2.70;;
9240;SDS011;53485;49.326;9.738;2022-10-30T07:00:50;5.97;;;2.63;;
9240;SDS011;53485;49.326;9.738;2022-10-30T07:03:18;4.67;;;2.10;;
9240;SDS011;53485;49.326;9.738;2022-10-30T07:05:44;7.47;;;2.27;;
9240;SDS011;53485;49.326;9.738;2022-10-30T07:08:11;7.80;;;2.77;;
9240;SDS011;53485;49.326;9.738;2022-10-30T07:10:38;9.07;;;2.23;;
9240;SDS011;53485;49.326;9.738;2022-10-30T07:13:05;9.33;;;3.27;;
9240;SDS011;53485;49.326;9.738;2022-10-30T07:15:32;8.00;;;2.70;;
9240;SDS011;53485;49.326;9.738;2022-10-30T07:18:00;4.60;;;2.27;;
9240;SDS011;53485;49.326;9.738;2022-10-30T07:20:29;4.53;;;2.37;;
9240;SDS011;53485;49.326;9.738;2022-10-30T07:22:53;5.87;;;2.70;;
9240;SDS011;53485;49.326;9.738;2022-10-30T07:25:21;12.77;;;3.20;;
9240;SDS011;53485;49.326;9.738;2022-10-30T07:27:48;7.33;;;2.90;;
9240;SDS011;53485;49.326;9.738;2022-10-30T07:30:15;9.13;;;3.07;;
9240;SDS011;53485;49.326;9.738;2022-10-30T07:32:41;11.93;;;3.50;;
9240;SDS011;53485;49.326;9.738;2022-10-30T07:35:09;8.70;;;3.13;;
9240;SDS011;53485;49.326;9.738;2022-10-30T07:37:35;12.93;;;3.67;;
9240;SDS011;53485;49.326;9.738;2022-10-30T07:40:02;7.27;;;3.13;;
9240;SDS011;53485;49.326;9.738;2022-10-30T07:42:30;12.07;;;3.50;;
9240;SDS011;53485;49.326;9.738;2022-10-30T07:44:56;8.23;;;4.07;;
9240;SDS011;53485;49.326;9.738;2022-10-30T07:47:24;10.57;;;4.13;;
9240;SDS011;53485;49.326;9.738;2022-10-30T07:49:51;10.23;;;6.07;;
9240;SDS011;53485;49.326;9.738;2022-10-30T07:52:19;10.35;;;4.80;;
9240;SDS011;53485;49.326;9.738;2022-10-30T07:54:47;11.23;;;4.32;;
9240;SDS011;53485;49.326;9.738;2022-10-30T07:57:15;10.57;;;3.92;;
9240;SDS011;53485;49.326;9.738;2022-10-30T07:59:43;6.85;;;3.25;;
9240;SDS011;53485;49.326;9.738;2022-10-30T08:02:11;7.82;;;3.65;;
9240;SDS011;53485;49.326;9.738;2022-10-30T08:04:39;9.13;;;4.50;;
9240;SDS011;53485;49.326;9.738;2022-10-30T08:07:07;8.82;;;4.18;;
9240;SDS011;53485;49.326;9.738;2022-10-30T08:09:35;10.38;;;3.67;;
9240;SDS011;53485;49.326;9.738;2022-10-30T08:12:03;8.30;;;3.28;;
9240;SDS011;53485;49.326;9.738;2022-10-30T08:14:31;7.80;;;3.62;;
9240;SDS011;53485;49.326;9.738;2022-10-30T08:16:59;9.38;;;3.05;;
9240;SDS011;53485;49.326;9.738;2022-10-30T08:19:27;9.70;;;3.00;;
9240;SDS011;53485;49.326;9.738;2022-10-30T08:21:55;9.00;;;3.90;;
9240;SDS011;53485;49.326;9.738;2022-10-30T08:24:23;5.72;;;2.95;;
9240;SDS011;53485;49.326;9.738;2022-10-30T08:26:51;11.00;;;3.72;;
9240;SDS011;53485;49.326;9.738;2022-10-30T08:29:19;8.55;;;3.40;;
9240;SDS011;53485;49.326;9.738;2022-10-30T08:31:47;9.18;;;3.30;;
9240;SDS011;53485;49.326;9.738;2022-10-30T08:34:14;8.70;;;3.33;;
9240;SDS011;53485;49.326;9.738;2022-10-30T08:36:42;8.60;;;3.08;;
9240;SDS011;53485;49.326;9.738;2022-10-30T08:39:10;8.10;;;2.75;;
9240;SDS011;53485;49.326;9.738;2022-10-30T08:41:38;15.40;;;3.75;;
9240;SDS011;53485;49.326;9.738;2022-10-30T08:44:06;8.52;;;2.95;;
9240;SDS011;53485;49.326;9.738;2022-10-30T08:46:33;11.68;;;2.80;;
9240;SDS011;53485;49.326;9.738;2022-10-30T08:49:01;7.78;;;2.83;;
9240;SDS011;53485;49.326;9.738;2022-10-30T08:51:31;10.60;;;2.95;;
9240;SDS011;53485;49.326;9.738;2022-10-30T08:53:58;7.30;;;2.65;;
9240;SDS011;53485;49.326;9.738;2022-10-30T08:56:25;6.60;;;2.87;;
9240;SDS011;53485;49.326;9.738;2022-10-30T08:58:52;7.28;;;2.85;;
9240;SDS011;53485;49.326;9.738;2022-10-30T09:01:20;6.55;;;3.03;;
9240;SDS011;53485;49.326;9.738;2022-10-30T09:03:48;8.82;;;3.47;;
9240;SDS011;53485;49.326;9.738;2022-10-30T09:06:16;12.88;;;3.33;;
9240;SDS011;53485;49.326;9.738;2022-10-30T09:08:44;8.82;;;4.15;;
9240;SDS011;53485;49.326;9.738;2022-10-30T09:11:11;7.40;;;3.63;;
9240;SDS011;53485;49.326;9.738;2022-10-30T09:13:39;10.35;;;3.42;;
9240;SDS011;53485;49.326;9.738;2022-10-30T09:16:06;9.13;;;3.10;;
9240;SDS011;53485;49.326;9.738;2022-10-30T09:18:34;10.40;;;4.18;;
9240;SDS011;53485;49.326;9.738;2022-10-30T09:21:02;13.50;;;3.47;;
9240;SDS011;53485;49.326;9.738;2022-10-30T09:23:30;11.32;;;2.87;;
9240;SDS011;53485;49.326;9.738;2022-10-30T09:25:58;7.03;;;3.08;;
9240;SDS011;53485;49.326;9.738;2022-10-30T09:28:25;4.68;;;2.92;;
9240;SDS011;53485;49.326;9.738;2022-10-30T09:30:53;4.90;;;2.08;;
9240;SDS011;53485;49.326;9.738;2022-10-30T09:33:21;6.40;;;2.40;;
9240;SDS011;53485;49.326;9.738;2022-10-30T09:35:49;8.13;;;2.42;;
9240;SDS011;53485;49.326;9.738;2022-10-30T09:38:16;6.67;;;2.13;;
9240;SDS011;53485;49.326;9.738;2022-10-30T09:40:50;9.53;;;2.70;;
9240;SDS011;53485;49.326;9.738;2022-10-30T09:43:25;7.87;;;2.97;;
9240;SDS011;53485;49.326;9.738;2022-10-30T09:46:11;9.63;;;2.70;;
9240;SDS011;53485;49.326;9.738;2022-10-30T09:49:10;5.75;;;2.40;;
9240;SDS011;53485;49.326;9.738;2022-10-30T09:51:34;9.27;;;3.00;;
9240;SDS011;53485;49.326;9.738;2022-10-30T09:54:09;10.10;;;2.47;;
9240;SDS011;53485;49.326;9.738;2022-10-30T09:56:39;6.70;;;2.58;;
9240;SDS011;53485;49.326;9.738;2022-10-30T10:00:11;10.55;;;2.97;;
9240;SDS011;53485;49.326;9.738;2022-10-30T10:01:51;10.68;;;2.58;;
9240;SDS011;53485;49.326;9.738;2022-10-30T10:04:29;9.53;;;2.30;;
9240;SDS011;53485;49.326;9.738;2022-10-30T10:07:01;9.10;;;2.67;;
9240;SDS011;53485;49.326;9.738;2022-10-30T10:09:28;7.40;;;2.53;;
9240;SDS011;53485;49.326;9.738;2022-10-30T10:11:57;6.57;;;2.85;;
9240;SDS011;53485;49.326;9.738;2022-10-30T10:14:25;8.02;;;2.60;;
9240;SDS011;53485;49.326;9.738;2022-10-30T10:16:51;5.82;;;2.53;;
9240;SDS011;53485;49.326;9.738;2022-10-30T10:19:19;6.70;;;2.28;;
9240;SDS011;53485;49.326;9.738;2022-10-30T10:21:51;5.95;;;2.12;;
9240;SDS011;53485;49.326;9.738;2022-10-30T10:24:22;7.32;;;2.30;;
9240;SDS011;53485;49.326;9.738;2022-10-30T10:26:55;4.90;;;2.47;;
9240;SDS011;53485;49.326;9.738;2022-10-30T10:29:27;7.65;;;2.60;;
9240;SDS011;53485;49.326;9.738;2022-10-30T10:33:01;8.77;;;3.37;;
9240;SDS011;53485;49.326;9.738;2022-10-30T10:34:55;5.87;;;2.40;;
9240;SDS011;53485;49.326;9.738;2022-10-30T10:37:30;12.98;;;2.47;;
9240;SDS011;53485;49.326;9.738;2022-10-30T10:40:15;7.78;;;2.67;;
9240;SDS011;53485;49.326;9.738;2022-10-30T10:43:14;8.95;;;2.35;;
9240;SDS011;53485;49.326;9.738;2022-10-30T10:46:11;7.32;;;2.20;;
9240;SDS011;53485;49.326;9.738;2022-10-30T10:48:45;6.97;;;2.17;;
9240;SDS011;53485;49.326;9.738;2022-10-30T10:51:29;7.35;;;2.17;;
9240;SDS011;53485;49.326;9.738;2022-10-30T10:53:58;4.15;;;1.73;;
9240;SDS011;53485;49.326;9.738;2022-10-30T10:56:29;7.05;;;2.55;;
9240;SDS011;53485;49.326;9.738;2022-10-30T10:58:57;9.20;;;2.33;;
9240;SDS011;53485;49.326;9.738;2022-10-30T11:01:39;6.97;;;2.25;;
9240;SDS011;53485;49.326;9.738;2022-10-30T11:04:11;6.15;;;2.12;;
9240;SDS011;53485;49.326;9.738;2022-10-30T11:06:42;8.57;;;2.60;;
9240;SDS011;53485;49.326;9.738;2022-10-30T11:09:17;12.27;;;3.30;;
9240;SDS011;53485;49.326;9.738;2022-10-30T11:11:46;5.15;;;1.83;;
9240;SDS011;53485;49.326;9.738;2022-10-30T11:14:14;5.22;;;2.53;;
9240;SDS011;53485;49.326;9.738;2022-10-30T11:16:55;4.18;;;2.22;;
9240;SDS011;53485;49.326;9.738;2022-10-30T11:19:24;9.30;;;2.62;;
9240;SDS011;53485;49.326;9.738;2022-10-30T11:21:52;6.43;;;2.03;;
9240;SDS011;53485;49.326;9.738;2022-10-30T11:24:25;4.70;;;1.73;;
9240;SDS011;53485;49.326;9.738;2022-10-30T11:26:56;4.12;;;1.62;;
9240;SDS011;53485;49.326;9.738;2022-10-30T11:29:24;4.95;;;2.20;;
9240;SDS011;53485;49.326;9.738;2022-10-30T11:31:59;4.00;;;1.75;;
9240;SDS011;53485;49.326;9.738;2022-10-30T11:34:32;7.75;;;1.80;;
9240;SDS011;53485;49.326;9.738;2022-10-30T11:37:01;3.78;;;1.80;;
9240;SDS011;53485;49.326;9.738;2022-10-30T11:39:32;6.78;;;1.60;;
9240;SDS011;53485;49.326;9.738;2022-10-30T11:42:01;4.93;;;1.62;;
9240;SDS011;53485;49.326;9.738;2022-10-30T11:44:31;5.10;;;2.08;;
9240;SDS011;53485;49.326;9.738;2022-10-30T11:46:59;6.30;;;1.87;;
9240;SDS011;53485;49.326;9.738;2022-10-30T11:49:30;3.80;;;1.83;;
9240;SDS011;53485;49.326;9.738;2022-10-30T11:51:57;5.85;;;1.85;;
9240;SDS011;53485;49.326;9.738;2022-10-30T11:54:24;3.65;;;1.42;;
9240;SDS011;53485;49.326;9.738;2022-10-30T11:56:52;5.00;;;1.85;;
9240;SDS011;53485;49.326;9.738;2022-10-30T11:59:20;4.18;;;1.30;;
9240;SDS011;53485;49.326;9.738;2022-10-30T12:04:38;6.40;;;1.65;;
9240;SDS011;53485;49.326;9.738;2022-10-30T12:07:06;2.95;;;1.60;;
9240;SDS011;53485;49.326;9.738;2022-10-30T12:09:40;5.03;;;1.62;;
9240;SDS011;53485;49.326;9.738;2022-10-30T12:12:00;2.83;;;1.50;;
9240;SDS011;53485;49.326;9.738;2022-10-30T12:14:28;3.12;;;1.50;;
9240;SDS011;53485;49.326;9.738;2022-10-30T12:16:56;4.10;;;1.52;;
9240;SDS011;53485;49.326;9.738;2022-10-30T12:19:23;6.53;;;2.33;;
9240;SDS011;53485;49.326;9.738;2022-10-30T12:21:51;5.00;;;1.40;;
9240;SDS011;53485;49.326;9.738;2022-10-30T12:24:20;5.53;;;2.20;;
9240;SDS011;53485;49.326;9.738;2022-10-30T12:26:48;4.97;;;1.77;;
9240;SDS011;53485;49.326;9.738;2022-10-30T12:29:15;5.53;;;1.87;;
9240;SDS011;53485;49.326;9.738;2022-10-30T12:31:56;4.10;;;1.50;;
9240;SDS011;53485;49.326;9.738;2022-10-30T12:37:01;4.12;;;1.42;;
9240;SDS011;53485;49.326;9.738;2022-10-30T12:39:28;3.60;;;1.48;;
9240;SDS011;53485;49.326;9.738;2022-10-30T12:41:56;4.50;;;1.52;;
9240;SDS011;53485;49.326;9.738;2022-10-30T12:44:25;5.22;;;1.40;;
9240;SDS011;53485;49.326;9.738;2022-10-30T12:46:55;5.95;;;1.83;;
9240;SDS011;53485;49.326;9.738;2022-10-30T12:49:39;3.67;;;1.40;;
9240;SDS011;53485;49.326;9.738;2022-10-30T12:52:11;5.95;;;1.50;;
9240;SDS011;53485;49.326;9.738;2022-10-30T12:54:56;4.95;;;1.55;;
9240;SDS011;53485;49.326;9.738;2022-10-30T12:57:23;5.25;;;1.23;;
9240;SDS011;53485;49.326;9.738;2022-10-30T12:59:54;5.30;;;1.50;;
9240;SDS011;53485;49.326;9.738;2022-10-30T13:02:44;3.85;;;1.80;;
9240;SDS011;53485;49.326;9.738;2022-10-30T13:07:49;8.43;;;1.80;;
9240;SDS011;53485;49.326;9.738;2022-10-30T13:10:21;3.65;;;1.35;;
9240;SDS011;53485;49.326;9.738;2022-10-30T13:12:49;5.32;;;1.15;;
9240;SDS011;53485;49.326;9.738;2022-10-30T13:18:11;5.37;;;1.30;;
9240;SDS011;53485;49.326;9.738;2022-10-30T13:20:36;6.93;;;1.30;;
9240;SDS011;53485;49.326;9.738;2022-10-30T13:23:08;7.47;;;1.62;;
9240;SDS011;53485;49.326;9.738;2022-10-30T13:25:34;3.20;;;1.20;;
9240;SDS011;53485;49.326;9.738;2022-10-30T13:28:16;8.05;;;1.62;;
9240;SDS011;53485;49.326;9.738;2022-10-30T13:31:06;2.45;;;1.10;;
9240;SDS011;53485;49.326;9.738;2022-10-30T13:33:34;3.97;;;1.30;;
9240;SDS011;53485;49.326;9.738;2022-10-30T13:36:01;4.03;;;1.37;;
9240;SDS011;53485;49.326;9.738;2022-10-30T13:38:32;3.17;;;1.10;;
9240;SDS011;53485;49.326;9.738;2022-10-30T13:41:07;4.15;;;1.10;;
9240;SDS011;53485;49.326;9.738;2022-10-30T13:43:53;3.70;;;1.27;;
9240;SDS011;53485;49.326;9.738;2022-10-30T13:50:10;7.07;;;1.33;;
9240;SDS011;53485;49.326;9.738;2022-10-30T13:52:01;5.43;;;1.10;;
9240;SDS011;53485;49.326;9.738;2022-10-30T13:54:29;2.93;;;0.90;;
9240;SDS011;53485;49.326;9.738;2022-10-30T13:56:55;3.30;;;1.00;;
9240;SDS011;53485;49.326;9.738;2022-10-30T14:02:21;6.07;;;1.20;;
9240;SDS011;53485;49.326;9.738;2022-10-30T14:04:48;3.97;;;1.27;;
9240;SDS011;53485;49.326;9.738;2022-10-30T14:07:19;4.78;;;1.10;;
9240;SDS011;53485;49.326;9.738;2022-10-30T14:09:50;3.33;;;1.12;;
9240;SDS011;53485;49.326;9.738;2022-10-30T14:15:18;1.35;;;0.90;;
9240;SDS011;53485;49.326;9.738;2022-10-30T14:20:41;1.65;;;0.98;;
9240;SDS011;53485;49.326;9.738;2022-10-30T14:23:14;2.80;;;0.98;;
9240;SDS011;53485;49.326;9.738;2022-10-30T14:25:41;3.97;;;1.23;;
9240;SDS011;53485;49.326;9.738;2022-10-30T14:30:44;4.57;;;1.10;;
9240;SDS011;53485;49.326;9.738;2022-10-30T14:38:58;3.03;;;1.08;;
9240;SDS011;53485;49.326;9.738;2022-10-30T14:41:27;3.20;;;1.45;;
9240;SDS011;53485;49.326;9.738;2022-10-30T14:43:58;3.20;;;1.40;;
9240;SDS011;53485;49.326;9.738;2022-10-30T14:46:36;3.80;;;1.20;;
9240;SDS011;53485;49.326;9.738;2022-10-30T14:49:08;4.03;;;1.27;;
9240;SDS011;53485;49.326;9.738;2022-10-30T14:51:50;3.40;;;1.13;;
9240;SDS011;53485;49.326;9.738;2022-10-30T14:54:26;4.23;;;1.10;;
9240;SDS011;53485;49.326;9.738;2022-10-30T14:56:53;4.37;;;1.50;;
9240;SDS011;53485;49.326;9.738;2022-10-30T14:59:23;4.43;;;1.47;;
9240;SDS011;53485;49.326;9.738;2022-10-30T15:01:59;1.93;;;1.00;;
9240;SDS011;53485;49.326;9.738;2022-10-30T15:04:51;3.30;;;1.20;;
9240;SDS011;53485;49.326;9.738;2022-10-30T15:07:37;3.73;;;1.40;;
9240;SDS011;53485;49.326;9.738;2022-10-30T15:10:10;3.93;;;1.30;;
9240;SDS011;53485;49.326;9.738;2022-10-30T15:13:06;6.77;;;1.60;;
9240;SDS011;53485;49.326;9.738;2022-10-30T15:15:30;4.73;;;1.20;;
9240;SDS011;53485;49.326;9.738;2022-10-30T15:17:58;4.50;;;1.37;;
9240;SDS011;53485;49.326;9.738;2022-10-30T15:20:25;5.27;;;1.50;;
9240;SDS011;53485;49.326;9.738;2022-10-30T15:22:52;3.77;;;1.40;;
9240;SDS011;53485;49.326;9.738;2022-10-30T15:25:19;3.07;;;1.10;;
9240;SDS011;53485;49.326;9.738;2022-10-30T15:27:47;3.63;;;1.43;;
9240;SDS011;53485;49.326;9.738;2022-10-30T15:30:16;4.67;;;1.30;;
9240;SDS011;53485;49.326;9.738;2022-10-30T15:32:42;2.37;;;1.17;;
9240;SDS011;53485;49.326;9.738;2022-10-30T15:35:15;1.40;;;0.93;;
9240;SDS011;53485;49.326;9.738;2022-10-30T15:37:54;5.53;;;1.47;;
9240;SDS011;53485;49.326;9.738;2022-10-30T15:40:23;5.17;;;1.20;;
9240;SDS011;53485;49.326;9.738;2022-10-30T15:42:49;5.47;;;1.10;;
9240;SDS011;53485;49.326;9.738;2022-10-30T15:45:18;3.13;;;0.83;;
9240;SDS011;53485;49.326;9.738;2022-10-30T15:47:44;3.77;;;1.00;;
9240;SDS011;53485;49.326;9.738;2022-10-30T15:50:10;2.63;;;1.10;;
9240;SDS011;53485;49.326;9.738;2022-10-30T15:52:38;2.67;;;1.10;;
9240;SDS011;53485;49.326;9.738;2022-10-30T15:55:05;2.90;;;1.10;;